sensor_id;sensor_type;location;lat;lon;timestamp;temperature;humidity
17845;DHT22;9047;53.486;10.218;2023-04-25T00:00:35;8.40;99.90
17845;DHT22;9047;53.486;10.218;2023-04-25T00:03:07;8.30;99.90
17845;DHT22;9047;53.486;10.218;2023-04-25T00:05:45;8.30;99.90
17845;DHT22;9047;53.486;10.218;2023-04-25T00:08:23;8.30;99.90
17845;DHT22;9047;53.486;10.218;2023-04-25T00:11:03;8.40;99.90
17845;DHT22;9047;53.486;10.218;2023-04-25T00:13:37;8.40;99.90
17845;DHT22;9047;53.486;10.218;2023-04-25T00:16:08;8.30;99.90
17845;DHT22;9047;53.486;10.218;2023-04-25T00:18:42;8.30;99.90
17845;DHT22;9047;53.486;10.218;2023-04-25T00:21:15;8.40;99.90
17845;DHT22;9047;53.486;10.218;2023-04-25T00:23:47;8.30;99.90
17845;DHT22;9047;53.486;10.218;2023-04-25T00:26:21;8.40;99.90
17845;DHT22;9047;53.486;10.218;2023-04-25T00:28:49;8.40;99.90
17845;DHT22;9047;53.486;10.218;2023-04-25T00:31:18;8.40;99.90
17845;DHT22;9047;53.486;10.218;2023-04-25T00:36:59;8.40;99.90
17845;DHT22;9047;53.486;10.218;2023-04-25T00:39:28;8.40;99.90
17845;DHT22;9047;53.486;10.218;2023-04-25T00:42:00;8.30;99.90
17845;DHT22;9047;53.486;10.218;2023-04-25T00:44:32;8.30;99.90
17845;DHT22;9047;53.486;10.218;2023-04-25T00:47:02;8.30;99.90
17845;DHT22;9047;53.486;10.218;2023-04-25T00:49:36;8.30;99.90
17845;DHT22;9047;53.486;10.218;2023-04-25T00:52:07;8.20;99.90
17845;DHT22;9047;53.486;10.218;2023-04-25T00:54:38;8.10;99.90
17845;DHT22;9047;53.486;10.218;2023-04-25T00:57:13;8.10;99.90
17845;DHT22;9047;53.486;10.218;2023-04-25T00:59:45;8.10;99.90
17845;DHT22;9047;53.486;10.218;2023-04-25T01:02:13;8.00;99.90
17845;DHT22;9047;53.486;10.218;2023-04-25T01:04:42;8.00;99.90
17845;DHT22;9047;53.486;10.218;2023-04-25T01:07:15;8.00;99.90
17845;DHT22;9047;53.486;10.218;2023-04-25T01:09:45;8.00;99.90
17845;DHT22;9047;53.486;10.218;2023-04-25T01:12:14;8.00;99.90
17845;DHT22;9047;53.486;10.218;2023-04-25T01:14:48;7.90;99.90
17845;DHT22;9047;53.486;10.218;2023-04-25T01:17:25;7.90;99.90
17845;DHT22;9047;53.486;10.218;2023-04-25T01:19:57;7.90;99.90
17845;DHT22;9047;53.486;10.218;2023-04-25T01:22:34;7.90;99.90
17845;DHT22;9047;53.486;10.218;2023-04-25T01:25:02;7.80;99.90
17845;DHT22;9047;53.486;10.218;2023-04-25T01:27:36;7.80;99.90
17845;DHT22;9047;53.486;10.218;2023-04-25T01:30:10;7.80;99.90
17845;DHT22;9047;53.486;10.218;2023-04-25T01:32:38;7.80;99.90
17845;DHT22;9047;53.486;10.218;2023-04-25T01:35:37;7.80;99.90
17845;DHT22;9047;53.486;10.218;2023-04-25T01:38:16;7.80;99.90
17845;DHT22;9047;53.486;10.218;2023-04-25T01:40:45;7.80;99.90
17845;DHT22;9047;53.486;10.218;2023-04-25T01:43:24;7.80;99.90
17845;DHT22;9047;53.486;10.218;2023-04-25T01:45:54;7.90;99.90
17845;DHT22;9047;53.486;10.218;2023-04-25T01:48:26;7.80;99.90
17845;DHT22;9047;53.486;10.218;2023-04-25T01:51:08;7.90;99.90
17845;DHT22;9047;53.486;10.218;2023-04-25T01:53:45;7.90;99.90
17845;DHT22;9047;53.486;10.218;2023-04-25T01:56:23;7.80;99.90
17845;DHT22;9047;53.486;10.218;2023-04-25T01:58:52;7.80;99.90
17845;DHT22;9047;53.486;10.218;2023-04-25T02:01:21;7.80;99.90
17845;DHT22;9047;53.486;10.218;2023-04-25T02:03:57;7.80;99.90
17845;DHT22;9047;53.486;10.218;2023-04-25T02:06:25;7.80;99.90
17845;DHT22;9047;53.486;10.218;2023-04-25T02:09:02;7.80;99.90
17845;DHT22;9047;53.486;10.218;2023-04-25T02:11:44;7.70;99.90
17845;DHT22;9047;53.486;10.218;2023-04-25T02:14:29;7.70;99.90
17845;DHT22;9047;53.486;10.218;2023-04-25T02:17:02;7.70;99.90
17845;DHT22;9047;53.486;10.218;2023-04-25T02:19:33;7.70;99.90
17845;DHT22;9047;53.486;10.218;2023-04-25T02:22:07;7.60;99.90
17845;DHT22;9047;53.486;10.218;2023-04-25T02:24:40;7.60;99.90
17845;DHT22;9047;53.486;10.218;2023-04-25T02:27:08;7.60;99.90
17845;DHT22;9047;53.486;10.218;2023-04-25T02:29:41;7.60;99.90
17845;DHT22;9047;53.486;10.218;2023-04-25T02:32:10;7.60;99.90
17845;DHT22;9047;53.486;10.218;2023-04-25T02:34:52;7.60;99.90
17845;DHT22;9047;53.486;10.218;2023-04-25T02:37:26;7.60;99.90
17845;DHT22;9047;53.486;10.218;2023-04-25T02:40:13;7.50;99.90
17845;DHT22;9047;53.486;10.218;2023-04-25T02:42:42;7.50;99.90
17845;DHT22;9047;53.486;10.218;2023-04-25T02:45:15;7.50;99.90
17845;DHT22;9047;53.486;10.218;2023-04-25T02:47:55;7.50;99.90
17845;DHT22;9047;53.486;10.218;2023-04-25T02:50:27;7.40;99.90
17845;DHT22;9047;53.486;10.218;2023-04-25T02:52:58;7.40;99.90
17845;DHT22;9047;53.486;10.218;2023-04-25T02:55:31;7.20;99.90
17845;DHT22;9047;53.486;10.218;2023-04-25T02:58:01;7.30;99.90
17845;DHT22;9047;53.486;10.218;2023-04-25T03:00:33;7.20;99.90
17845;DHT22;9047;53.486;10.218;2023-04-25T03:03:22;7.20;99.90
17845;DHT22;9047;53.486;10.218;2023-04-25T03:06:01;7.20;99.90
17845;DHT22;9047;53.486;10.218;2023-04-25T03:08:30;7.20;99.90
17845;DHT22;9047;53.486;10.218;2023-04-25T03:11:04;7.20;99.90
17845;DHT22;9047;53.486;10.218;2023-04-25T03:13:35;7.20;99.90
17845;DHT22;9047;53.486;10.218;2023-04-25T03:16:06;7.30;99.90
17845;DHT22;9047;53.486;10.218;2023-04-25T03:18:36;7.30;99.90
17845;DHT22;9047;53.486;10.218;2023-04-25T03:21:07;7.20;99.90
17845;DHT22;9047;53.486;10.218;2023-04-25T03:23:39;7.20;99.90
17845;DHT22;9047;53.486;10.218;2023-04-25T03:26:41;7.10;99.90
17845;DHT22;9047;53.486;10.218;2023-04-25T03:29:10;7.10;99.90
17845;DHT22;9047;53.486;10.218;2023-04-25T03:31:39;7.10;99.90
17845;DHT22;9047;53.486;10.218;2023-04-25T03:34:09;7.10;99.90
17845;DHT22;9047;53.486;10.218;2023-04-25T03:36:41;7.10;99.90
17845;DHT22;9047;53.486;10.218;2023-04-25T03:39:09;7.00;99.90
17845;DHT22;9047;53.486;10.218;2023-04-25T03:41:41;7.00;99.90
17845;DHT22;9047;53.486;10.218;2023-04-25T03:44:16;7.00;99.90
17845;DHT22;9047;53.486;10.218;2023-04-25T03:46:45;6.90;99.90
17845;DHT22;9047;53.486;10.218;2023-04-25T03:49:15;6.80;99.90
17845;DHT22;9047;53.486;10.218;2023-04-25T03:51:50;6.70;99.90
17845;DHT22;9047;53.486;10.218;2023-04-25T03:54:19;6.60;99.90
17845;DHT22;9047;53.486;10.218;2023-04-25T03:56:56;6.60;99.90
17845;DHT22;9047;53.486;10.218;2023-04-25T03:59:26;6.50;99.90
17845;DHT22;9047;53.486;10.218;2023-04-25T04:02:05;6.50;99.90
17845;DHT22;9047;53.486;10.218;2023-04-25T04:04:42;6.40;99.90
17845;DHT22;9047;53.486;10.218;2023-04-25T04:07:29;6.40;99.90
17845;DHT22;9047;53.486;10.218;2023-04-25T04:10:00;6.50;99.90
17845;DHT22;9047;53.486;10.218;2023-04-25T04:12:44;6.50;99.90
17845;DHT22;9047;53.486;10.218;2023-04-25T04:15:13;6.50;99.90
17845;DHT22;9047;53.486;10.218;2023-04-25T04:17:41;6.50;99.90
17845;DHT22;9047;53.486;10.218;2023-04-25T04:20:11;6.60;99.90
17845;DHT22;9047;53.486;10.218;2023-04-25T04:22:42;6.50;99.90
17845;DHT22;9047;53.486;10.218;2023-04-25T04:25:22;6.60;99.90
17845;DHT22;9047;53.486;10.218;2023-04-25T04:27:55;6.60;99.90
17845;DHT22;9047;53.486;10.218;2023-04-25T04:30:33;6.50;99.90
17845;DHT22;9047;53.486;10.218;2023-04-25T04:33:20;6.50;99.90
17845;DHT22;9047;53.486;10.218;2023-04-25T04:36:00;6.40;99.90
17845;DHT22;9047;53.486;10.218;2023-04-25T04:38:52;6.40;99.90
17845;DHT22;9047;53.486;10.218;2023-04-25T04:41:19;6.50;99.90
17845;DHT22;9047;53.486;10.218;2023-04-25T04:43:49;6.40;99.90
17845;DHT22;9047;53.486;10.218;2023-04-25T04:46:18;6.30;99.90
17845;DHT22;9047;53.486;10.218;2023-04-25T04:48:51;6.30;99.90
17845;DHT22;9047;53.486;10.218;2023-04-25T04:51:19;6.30;99.90
17845;DHT22;9047;53.486;10.218;2023-04-25T04:53:48;6.30;99.90
17845;DHT22;9047;53.486;10.218;2023-04-25T04:56:22;6.30;99.90
17845;DHT22;9047;53.486;10.218;2023-04-25T04:59:11;6.40;99.90
17845;DHT22;9047;53.486;10.218;2023-04-25T05:01:42;6.40;99.90
17845;DHT22;9047;53.486;10.218;2023-04-25T05:04:12;6.50;99.90
17845;DHT22;9047;53.486;10.218;2023-04-25T05:06:39;6.70;99.90
17845;DHT22;9047;53.486;10.218;2023-04-25T05:09:07;6.80;99.90
17845;DHT22;9047;53.486;10.218;2023-04-25T05:11:43;6.90;99.90
17845;DHT22;9047;53.486;10.218;2023-04-25T05:14:13;7.10;99.90
17845;DHT22;9047;53.486;10.218;2023-04-25T05:16:42;7.10;99.90
17845;DHT22;9047;53.486;10.218;2023-04-25T05:19:10;7.20;99.90
17845;DHT22;9047;53.486;10.218;2023-04-25T05:21:38;7.40;99.90
17845;DHT22;9047;53.486;10.218;2023-04-25T05:24:08;7.50;99.90
17845;DHT22;9047;53.486;10.218;2023-04-25T05:26:41;7.60;99.90
17845;DHT22;9047;53.486;10.218;2023-04-25T05:29:13;7.70;99.90
17845;DHT22;9047;53.486;10.218;2023-04-25T05:31:50;7.70;99.90
17845;DHT22;9047;53.486;10.218;2023-04-25T05:34:28;7.70;99.90
17845;DHT22;9047;53.486;10.218;2023-04-25T05:36:55;7.70;99.90
17845;DHT22;9047;53.486;10.218;2023-04-25T05:39:25;7.70;99.90
17845;DHT22;9047;53.486;10.218;2023-04-25T05:42:09;7.60;99.90
17845;DHT22;9047;53.486;10.218;2023-04-25T05:44:48;7.60;99.90
17845;DHT22;9047;53.486;10.218;2023-04-25T05:47:19;7.40;99.90
17845;DHT22;9047;53.486;10.218;2023-04-25T05:49:48;7.30;99.90
17845;DHT22;9047;53.486;10.218;2023-04-25T05:52:18;7.30;99.90
17845;DHT22;9047;53.486;10.218;2023-04-25T05:54:47;7.30;99.90
17845;DHT22;9047;53.486;10.218;2023-04-25T05:57:20;7.30;99.90
17845;DHT22;9047;53.486;10.218;2023-04-25T05:59:58;7.40;99.90
17845;DHT22;9047;53.486;10.218;2023-04-25T06:02:28;7.40;99.90
17845;DHT22;9047;53.486;10.218;2023-04-25T06:04:56;7.50;99.90
17845;DHT22;9047;53.486;10.218;2023-04-25T06:07:31;7.60;99.90
17845;DHT22;9047;53.486;10.218;2023-04-25T06:10:15;7.70;99.90
17845;DHT22;9047;53.486;10.218;2023-04-25T06:12:50;7.80;99.90
17845;DHT22;9047;53.486;10.218;2023-04-25T06:15:51;7.90;99.90
17845;DHT22;9047;53.486;10.218;2023-04-25T06:18:41;8.00;99.90
17845;DHT22;9047;53.486;10.218;2023-04-25T06:21:18;8.10;99.90
17845;DHT22;9047;53.486;10.218;2023-04-25T06:23:49;8.20;99.90
17845;DHT22;9047;53.486;10.218;2023-04-25T06:26:16;8.40;99.90
17845;DHT22;9047;53.486;10.218;2023-04-25T06:28:51;8.50;99.90
17845;DHT22;9047;53.486;10.218;2023-04-25T06:31:24;8.60;99.90
17845;DHT22;9047;53.486;10.218;2023-04-25T06:33:58;8.60;99.90
17845;DHT22;9047;53.486;10.218;2023-04-25T06:36:33;8.70;99.90
17845;DHT22;9047;53.486;10.218;2023-04-25T06:39:06;8.80;99.90
17845;DHT22;9047;53.486;10.218;2023-04-25T06:41:45;8.80;99.90
17845;DHT22;9047;53.486;10.218;2023-04-25T06:44:14;8.80;99.90
17845;DHT22;9047;53.486;10.218;2023-04-25T06:46:45;8.80;99.90
17845;DHT22;9047;53.486;10.218;2023-04-25T06:49:14;8.80;99.90
17845;DHT22;9047;53.486;10.218;2023-04-25T06:51:42;8.70;99.90
17845;DHT22;9047;53.486;10.218;2023-04-25T06:54:10;8.70;99.90
17845;DHT22;9047;53.486;10.218;2023-04-25T06:56:41;8.80;99.90
17845;DHT22;9047;53.486;10.218;2023-04-25T06:59:17;8.90;99.90
17845;DHT22;9047;53.486;10.218;2023-04-25T07:01:47;9.00;99.90
17845;DHT22;9047;53.486;10.218;2023-04-25T07:04:19;9.10;99.90
17845;DHT22;9047;53.486;10.218;2023-04-25T07:06:47;9.30;99.90
17845;DHT22;9047;53.486;10.218;2023-04-25T07:09:15;9.50;99.90
17845;DHT22;9047;53.486;10.218;2023-04-25T07:11:56;9.60;99.90
17845;DHT22;9047;53.486;10.218;2023-04-25T07:14:25;9.70;99.90
17845;DHT22;9047;53.486;10.218;2023-04-25T07:16:54;9.90;99.90
17845;DHT22;9047;53.486;10.218;2023-04-25T07:19:23;10.00;99.90
17845;DHT22;9047;53.486;10.218;2023-04-25T07:21:56;10.20;99.90
17845;DHT22;9047;53.486;10.218;2023-04-25T07:24:23;10.30;99.90
17845;DHT22;9047;53.486;10.218;2023-04-25T07:26:51;10.30;99.90
17845;DHT22;9047;53.486;10.218;2023-04-25T07:29:20;10.30;99.90
17845;DHT22;9047;53.486;10.218;2023-04-25T07:31:50;10.50;99.90
17845;DHT22;9047;53.486;10.218;2023-04-25T07:34:23;10.70;99.90
17845;DHT22;9047;53.486;10.218;2023-04-25T07:36:51;10.90;99.90
17845;DHT22;9047;53.486;10.218;2023-04-25T07:39:18;10.90;99.90
17845;DHT22;9047;53.486;10.218;2023-04-25T07:41:45;10.90;99.90
17845;DHT22;9047;53.486;10.218;2023-04-25T07:44:15;10.80;99.90
17845;DHT22;9047;53.486;10.218;2023-04-25T07:46:55;10.70;99.90
17845;DHT22;9047;53.486;10.218;2023-04-25T07:49:30;10.60;99.90
17845;DHT22;9047;53.486;10.218;2023-04-25T07:52:06;10.40;99.90
17845;DHT22;9047;53.486;10.218;2023-04-25T07:54:37;10.20;99.90
17845;DHT22;9047;53.486;10.218;2023-04-25T07:57:04;10.20;99.90
17845;DHT22;9047;53.486;10.218;2023-04-25T07:59:32;10.00;99.90
17845;DHT22;9047;53.486;10.218;2023-04-25T08:02:01;9.90;99.90
17845;DHT22;9047;53.486;10.218;2023-04-25T08:04:30;9.90;99.90
17845;DHT22;9047;53.486;10.218;2023-04-25T08:07:03;9.90;99.90
17845;DHT22;9047;53.486;10.218;2023-04-25T08:09:33;9.90;99.90
17845;DHT22;9047;53.486;10.218;2023-04-25T08:12:06;10.10;99.90
17845;DHT22;9047;53.486;10.218;2023-04-25T08:14:35;10.30;99.90
17845;DHT22;9047;53.486;10.218;2023-04-25T08:17:10;10.60;99.90
17845;DHT22;9047;53.486;10.218;2023-04-25T08:19:39;11.00;99.90
17845;DHT22;9047;53.486;10.218;2023-04-25T08:22:08;11.20;99.90
17845;DHT22;9047;53.486;10.218;2023-04-25T08:24:38;11.50;99.90
17845;DHT22;9047;53.486;10.218;2023-04-25T08:27:06;11.80;99.90
17845;DHT22;9047;53.486;10.218;2023-04-25T08:29:35;11.90;99.90
17845;DHT22;9047;53.486;10.218;2023-04-25T08:32:02;11.80;99.90
17845;DHT22;9047;53.486;10.218;2023-04-25T08:34:29;11.70;99.90
17845;DHT22;9047;53.486;10.218;2023-04-25T08:37:05;11.60;99.90
17845;DHT22;9047;53.486;10.218;2023-04-25T08:39:34;11.50;99.90
17845;DHT22;9047;53.486;10.218;2023-04-25T08:42:25;11.40;99.90
17845;DHT22;9047;53.486;10.218;2023-04-25T08:45:21;11.20;99.90
17845;DHT22;9047;53.486;10.218;2023-04-25T08:47:54;11.10;99.90
17845;DHT22;9047;53.486;10.218;2023-04-25T08:50:31;11.00;99.90
17845;DHT22;9047;53.486;10.218;2023-04-25T08:53:09;10.90;99.90
17845;DHT22;9047;53.486;10.218;2023-04-25T08:55:41;10.90;99.90
17845;DHT22;9047;53.486;10.218;2023-04-25T08:58:13;10.90;99.90
17845;DHT22;9047;53.486;10.218;2023-04-25T09:00:50;11.10;99.90
17845;DHT22;9047;53.486;10.218;2023-04-25T09:03:23;11.20;99.90
17845;DHT22;9047;53.486;10.218;2023-04-25T09:05:59;11.30;99.90
17845;DHT22;9047;53.486;10.218;2023-04-25T09:08:49;11.40;99.90
17845;DHT22;9047;53.486;10.218;2023-04-25T09:11:25;11.40;99.90
17845;DHT22;9047;53.486;10.218;2023-04-25T09:14:23;11.40;99.90
17845;DHT22;9047;53.486;10.218;2023-04-25T09:17:14;11.50;99.90
17845;DHT22;9047;53.486;10.218;2023-04-25T09:23:16;11.40;99.90
17845;DHT22;9047;53.486;10.218;2023-04-25T09:25:48;11.30;99.90
17845;DHT22;9047;53.486;10.218;2023-04-25T09:28:32;11.30;99.90
17845;DHT22;9047;53.486;10.218;2023-04-25T09:31:02;11.40;99.90
17845;DHT22;9047;53.486;10.218;2023-04-25T09:33:34;11.40;99.90
17845;DHT22;9047;53.486;10.218;2023-04-25T09:36:05;11.30;99.90
17845;DHT22;9047;53.486;10.218;2023-04-25T09:38:48;11.20;99.90
17845;DHT22;9047;53.486;10.218;2023-04-25T09:41:25;11.00;99.90
17845;DHT22;9047;53.486;10.218;2023-04-25T09:43:59;10.90;99.90
17845;DHT22;9047;53.486;10.218;2023-04-25T09:46:43;10.90;99.90
17845;DHT22;9047;53.486;10.218;2023-04-25T09:49:15;11.00;99.90
17845;DHT22;9047;53.486;10.218;2023-04-25T09:51:57;10.90;99.90
17845;DHT22;9047;53.486;10.218;2023-04-25T09:54:29;10.90;99.90
17845;DHT22;9047;53.486;10.218;2023-04-25T09:57:06;10.90;99.90
17845;DHT22;9047;53.486;10.218;2023-04-25T09:59:45;11.00;99.90
17845;DHT22;9047;53.486;10.218;2023-04-25T10:02:21;11.30;99.90
17845;DHT22;9047;53.486;10.218;2023-04-25T10:04:52;11.40;99.90
17845;DHT22;9047;53.486;10.218;2023-04-25T10:07:28;11.10;99.90
17845;DHT22;9047;53.486;10.218;2023-04-25T10:10:06;10.90;99.90
17845;DHT22;9047;53.486;10.218;2023-04-25T10:12:51;10.80;99.90
17845;DHT22;9047;53.486;10.218;2023-04-25T10:15:20;10.90;99.90
17845;DHT22;9047;53.486;10.218;2023-04-25T10:17:56;11.00;99.90
17845;DHT22;9047;53.486;10.218;2023-04-25T10:20:41;11.10;99.90
17845;DHT22;9047;53.486;10.218;2023-04-25T10:23:17;11.40;99.90
17845;DHT22;9047;53.486;10.218;2023-04-25T10:25:49;11.60;99.90
17845;DHT22;9047;53.486;10.218;2023-04-25T10:28:22;11.80;99.90
17845;DHT22;9047;53.486;10.218;2023-04-25T10:30:59;11.90;99.90
17845;DHT22;9047;53.486;10.218;2023-04-25T10:33:32;12.00;99.90
17845;DHT22;9047;53.486;10.218;2023-04-25T10:36:09;12.00;99.90
17845;DHT22;9047;53.486;10.218;2023-04-25T10:38:44;11.90;99.90
17845;DHT22;9047;53.486;10.218;2023-04-25T10:41:13;11.90;99.90
17845;DHT22;9047;53.486;10.218;2023-04-25T10:44:02;12.00;99.90
17845;DHT22;9047;53.486;10.218;2023-04-25T10:46:38;12.00;99.90
17845;DHT22;9047;53.486;10.218;2023-04-25T10:49:32;12.10;99.90
17845;DHT22;9047;53.486;10.218;2023-04-25T10:52:19;12.20;99.90
17845;DHT22;9047;53.486;10.218;2023-04-25T10:54:58;12.20;99.90
17845;DHT22;9047;53.486;10.218;2023-04-25T10:57:35;12.00;99.90
17845;DHT22;9047;53.486;10.218;2023-04-25T11:00:10;11.90;99.90
17845;DHT22;9047;53.486;10.218;2023-04-25T11:02:51;11.90;99.90
17845;DHT22;9047;53.486;10.218;2023-04-25T11:05:27;11.80;99.90
17845;DHT22;9047;53.486;10.218;2023-04-25T11:08:11;11.50;99.90
17845;DHT22;9047;53.486;10.218;2023-04-25T11:10:48;11.40;99.90
17845;DHT22;9047;53.486;10.218;2023-04-25T11:13:29;11.50;99.90
17845;DHT22;9047;53.486;10.218;2023-04-25T11:16:07;11.90;99.90
17845;DHT22;9047;53.486;10.218;2023-04-25T11:18:58;12.20;99.90
17845;DHT22;9047;53.486;10.218;2023-04-25T11:21:44;12.40;99.90
17845;DHT22;9047;53.486;10.218;2023-04-25T11:24:27;12.50;99.90
17845;DHT22;9047;53.486;10.218;2023-04-25T11:26:56;12.80;99.90
17845;DHT22;9047;53.486;10.218;2023-04-25T11:29:34;13.00;99.90
17845;DHT22;9047;53.486;10.218;2023-04-25T11:32:09;12.90;99.90
17845;DHT22;9047;53.486;10.218;2023-04-25T11:34:44;12.80;99.90
17845;DHT22;9047;53.486;10.218;2023-04-25T11:37:11;12.70;99.90
17845;DHT22;9047;53.486;10.218;2023-04-25T11:39:44;12.50;99.90
17845;DHT22;9047;53.486;10.218;2023-04-25T11:42:14;12.60;99.90
17845;DHT22;9047;53.486;10.218;2023-04-25T11:44:44;12.60;99.90
17845;DHT22;9047;53.486;10.218;2023-04-25T11:47:17;12.50;99.90
17845;DHT22;9047;53.486;10.218;2023-04-25T11:49:50;12.70;99.90
17845;DHT22;9047;53.486;10.218;2023-04-25T11:52:21;12.70;99.90
17845;DHT22;9047;53.486;10.218;2023-04-25T11:54:56;12.70;99.90
17845;DHT22;9047;53.486;10.218;2023-04-25T11:57:24;12.60;99.90
17845;DHT22;9047;53.486;10.218;2023-04-25T12:00:14;12.10;99.90
17845;DHT22;9047;53.486;10.218;2023-04-25T12:02:51;11.50;99.90
17845;DHT22;9047;53.486;10.218;2023-04-25T12:05:23;10.80;99.90
17845;DHT22;9047;53.486;10.218;2023-04-25T12:08:15;10.50;99.90
17845;DHT22;9047;53.486;10.218;2023-04-25T12:11:04;10.20;99.90
17845;DHT22;9047;53.486;10.218;2023-04-25T12:13:35;10.20;99.90
17845;DHT22;9047;53.486;10.218;2023-04-25T12:16:05;10.40;99.90
17845;DHT22;9047;53.486;10.218;2023-04-25T12:18:42;10.50;99.90
17845;DHT22;9047;53.486;10.218;2023-04-25T12:21:11;10.50;99.90
17845;DHT22;9047;53.486;10.218;2023-04-25T12:23:46;10.50;99.90
17845;DHT22;9047;53.486;10.218;2023-04-25T12:26:18;10.70;99.90
17845;DHT22;9047;53.486;10.218;2023-04-25T12:28:49;10.80;99.90
17845;DHT22;9047;53.486;10.218;2023-04-25T12:31:19;10.90;99.90
17845;DHT22;9047;53.486;10.218;2023-04-25T12:33:59;11.00;99.90
17845;DHT22;9047;53.486;10.218;2023-04-25T12:36:27;11.20;99.90
17845;DHT22;9047;53.486;10.218;2023-04-25T12:39:03;11.50;99.90
17845;DHT22;9047;53.486;10.218;2023-04-25T12:41:42;11.70;99.90
17845;DHT22;9047;53.486;10.218;2023-04-25T12:44:12;12.00;99.90
17845;DHT22;9047;53.486;10.218;2023-04-25T12:46:39;12.10;99.90
17845;DHT22;9047;53.486;10.218;2023-04-25T12:49:15;12.10;99.90
17845;DHT22;9047;53.486;10.218;2023-04-25T12:51:42;12.10;99.90
17845;DHT22;9047;53.486;10.218;2023-04-25T12:54:11;12.00;99.60
17845;DHT22;9047;53.486;10.218;2023-04-25T12:56:45;11.90;99.80
17845;DHT22;9047;53.486;10.218;2023-04-25T12:59:21;11.80;99.90
17845;DHT22;9047;53.486;10.218;2023-04-25T13:01:53;11.70;99.90
17845;DHT22;9047;53.486;10.218;2023-04-25T13:04:27;12.00;99.90
17845;DHT22;9047;53.486;10.218;2023-04-25T13:06:56;12.30;99.60
17845;DHT22;9047;53.486;10.218;2023-04-25T13:09:30;12.50;99.20
17845;DHT22;9047;53.486;10.218;2023-04-25T13:11:59;12.80;98.80
17845;DHT22;9047;53.486;10.218;2023-04-25T13:14:31;12.80;98.80
17845;DHT22;9047;53.486;10.218;2023-04-25T13:17:03;12.60;99.90
17845;DHT22;9047;53.486;10.218;2023-04-25T13:19:55;12.40;99.70
17845;DHT22;9047;53.486;10.218;2023-04-25T13:22:37;12.00;99.90
17845;DHT22;9047;53.486;10.218;2023-04-25T13:25:07;11.80;99.90
17845;DHT22;9047;53.486;10.218;2023-04-25T13:27:40;11.60;99.90
17845;DHT22;9047;53.486;10.218;2023-04-25T13:30:10;11.50;99.90
17845;DHT22;9047;53.486;10.218;2023-04-25T13:32:53;11.40;99.90
17845;DHT22;9047;53.486;10.218;2023-04-25T13:35:40;11.50;99.90
17845;DHT22;9047;53.486;10.218;2023-04-25T13:38:15;11.50;99.90
17845;DHT22;9047;53.486;10.218;2023-04-25T13:40:53;11.10;99.90
17845;DHT22;9047;53.486;10.218;2023-04-25T13:43:27;10.70;99.90
17845;DHT22;9047;53.486;10.218;2023-04-25T13:46:05;10.30;99.90
17845;DHT22;9047;53.486;10.218;2023-04-25T13:48:37;9.90;99.90
17845;DHT22;9047;53.486;10.218;2023-04-25T13:51:18;9.70;99.90
17845;DHT22;9047;53.486;10.218;2023-04-25T13:53:48;9.70;99.90
17845;DHT22;9047;53.486;10.218;2023-04-25T13:56:30;9.80;99.90
17845;DHT22;9047;53.486;10.218;2023-04-25T13:59:00;10.20;99.90
17845;DHT22;9047;53.486;10.218;2023-04-25T14:01:28;10.30;99.90
17845;DHT22;9047;53.486;10.218;2023-04-25T14:04:06;10.60;99.90
17845;DHT22;9047;53.486;10.218;2023-04-25T14:06:40;11.00;99.90
17845;DHT22;9047;53.486;10.218;2023-04-25T14:09:09;11.30;99.90
17845;DHT22;9047;53.486;10.218;2023-04-25T14:11:42;11.30;99.90
17845;DHT22;9047;53.486;10.218;2023-04-25T14:14:13;10.70;99.90
17845;DHT22;9047;53.486;10.218;2023-04-25T14:16:54;10.00;99.90
17845;DHT22;9047;53.486;10.218;2023-04-25T14:19:28;9.30;99.90
17845;DHT22;9047;53.486;10.218;2023-04-25T14:22:11;8.80;99.90
17845;DHT22;9047;53.486;10.218;2023-04-25T14:24:48;8.50;99.90
17845;DHT22;9047;53.486;10.218;2023-04-25T14:27:23;8.50;99.90
17845;DHT22;9047;53.486;10.218;2023-04-25T14:29:55;8.50;99.90
17845;DHT22;9047;53.486;10.218;2023-04-25T14:32:52;8.50;99.90
17845;DHT22;9047;53.486;10.218;2023-04-25T14:35:31;8.70;99.90
17845;DHT22;9047;53.486;10.218;2023-04-25T14:38:14;9.10;99.90
17845;DHT22;9047;53.486;10.218;2023-04-25T14:41:08;9.50;99.90
17845;DHT22;9047;53.486;10.218;2023-04-25T14:43:47;9.70;99.90
17845;DHT22;9047;53.486;10.218;2023-04-25T14:46:20;9.80;99.90
17845;DHT22;9047;53.486;10.218;2023-04-25T14:49:08;10.00;99.90
17845;DHT22;9047;53.486;10.218;2023-04-25T14:51:48;10.00;99.90
17845;DHT22;9047;53.486;10.218;2023-04-25T14:54:22;10.10;99.90
17845;DHT22;9047;53.486;10.218;2023-04-25T14:56:52;10.10;99.90
17845;DHT22;9047;53.486;10.218;2023-04-25T14:59:22;9.90;99.90
17845;DHT22;9047;53.486;10.218;2023-04-25T15:01:52;9.80;99.90
17845;DHT22;9047;53.486;10.218;2023-04-25T15:04:28;9.70;99.90
17845;DHT22;9047;53.486;10.218;2023-04-25T15:07:00;9.70;99.90
17845;DHT22;9047;53.486;10.218;2023-04-25T15:13:37;10.30;99.90
17845;DHT22;9047;53.486;10.218;2023-04-25T15:16:13;10.70;99.90
17845;DHT22;9047;53.486;10.218;2023-04-25T15:18:57;11.10;99.90
17845;DHT22;9047;53.486;10.218;2023-04-25T15:21:39;11.30;99.90
17845;DHT22;9047;53.486;10.218;2023-04-25T15:24:12;11.40;99.90
17845;DHT22;9047;53.486;10.218;2023-04-25T15:26:59;11.50;99.90
17845;DHT22;9047;53.486;10.218;2023-04-25T15:29:46;11.30;99.90
17845;DHT22;9047;53.486;10.218;2023-04-25T15:32:32;11.00;99.90
17845;DHT22;9047;53.486;10.218;2023-04-25T15:35:15;10.70;99.90
17845;DHT22;9047;53.486;10.218;2023-04-25T15:37:57;10.60;99.90
17845;DHT22;9047;53.486;10.218;2023-04-25T15:40:38;10.40;99.90
17845;DHT22;9047;53.486;10.218;2023-04-25T15:43:06;10.30;99.90
17845;DHT22;9047;53.486;10.218;2023-04-25T15:46:05;10.40;99.90
17845;DHT22;9047;53.486;10.218;2023-04-25T15:48:42;10.40;99.90
17845;DHT22;9047;53.486;10.218;2023-04-25T15:51:20;10.60;99.90
17845;DHT22;9047;53.486;10.218;2023-04-25T15:54:14;10.80;99.90
17845;DHT22;9047;53.486;10.218;2023-04-25T15:56:59;10.90;99.90
17845;DHT22;9047;53.486;10.218;2023-04-25T15:59:39;10.90;99.90
17845;DHT22;9047;53.486;10.218;2023-04-25T16:02:35;10.90;99.90
17845;DHT22;9047;53.486;10.218;2023-04-25T16:05:26;10.80;99.90
17845;DHT22;9047;53.486;10.218;2023-04-25T16:08:04;10.90;99.90
17845;DHT22;9047;53.486;10.218;2023-04-25T16:10:55;10.90;99.90
17845;DHT22;9047;53.486;10.218;2023-04-25T16:13:37;10.90;99.90
17845;DHT22;9047;53.486;10.218;2023-04-25T16:16:16;10.80;99.90
17845;DHT22;9047;53.486;10.218;2023-04-25T16:19:00;10.80;99.90
17845;DHT22;9047;53.486;10.218;2023-04-25T16:21:39;10.80;99.90
17845;DHT22;9047;53.486;10.218;2023-04-25T16:24:09;10.70;99.90
17845;DHT22;9047;53.486;10.218;2023-04-25T16:26:39;10.60;99.90
17845;DHT22;9047;53.486;10.218;2023-04-25T16:29:18;10.40;99.90
17845;DHT22;9047;53.486;10.218;2023-04-25T16:31:50;10.20;99.90
17845;DHT22;9047;53.486;10.218;2023-04-25T16:34:48;10.10;99.90
17845;DHT22;9047;53.486;10.218;2023-04-25T16:37:19;10.10;99.90